Time;durP1;ratioP1;P1;durP2;ratioP2;P2;SDS_P1;SDS_P2;PMS_P1;PMS_P2;Temp;Humidity;BMP_temperature;BMP_pressure;BME280_temperature;BME280_humidity;BME280_pressure;Samples;Min_cycle;Max_cycle;Signal;HPM_P1;HPM_P2
2023/07/30 00:01:06;;;;;;;5.00;2.53;;;;;;;;;;5014457;28;20025;-75
2023/07/30 00:03:34;;;;;;;6.53;2.67;;;;;;;;;;5032108;28;20021;-75
2023/07/30 00:05:59;;;;;;;10.15;3.15;;;;;;;;;;5031837;28;20025;-75
2023/07/30 00:08:25;;;;;;;5.20;2.42;;;;;;;;;;5028619;28;20035;-74
2023/07/30 00:10:50;;;;;;;4.38;2.70;;;;;;;;;;5030046;28;20176;-75
2023/07/30 00:13:16;;;;;;;6.40;2.40;;;;;;;;;;5031844;28;20033;-75
2023/07/30 00:15:41;;;;;;;4.38;2.17;;;;;;;;;;5029947;28;20029;-77
2023/07/30 00:18:07;;;;;;;6.22;2.75;;;;;;;;;;5031750;28;20160;-77
2023/07/30 00:20:34;;;;;;;6.90;2.30;;;;;;;;;;5031750;28;20104;-76
2023/07/30 00:22:59;;;;;;;4.95;2.45;;;;;;;;;;5031738;28;20164;-75
2023/07/30 00:25:25;;;;;;;5.65;2.80;;;;;;;;;;5031574;28;20075;-76
2023/07/30 00:27:50;;;;;;;6.63;2.70;;;;;;;;;;5025506;28;20509;-77
2023/07/30 00:30:16;;;;;;;6.40;2.50;;;;;;;;;;5031357;28;20033;-76
2023/07/30 00:32:43;;;;;;;7.57;2.50;;;;;;;;;;5031214;28;20021;-77
2023/07/30 00:35:09;;;;;;;5.25;2.38;;;;;;;;;;5013220;28;20033;-77
2023/07/30 00:37:35;;;;;;;8.00;2.20;;;;;;;;;;5016844;28;20030;-77
2023/07/30 00:40:01;;;;;;;4.78;2.20;;;;;;;;;;5020234;28;20477;-76
2023/07/30 00:42:26;;;;;;;5.95;2.20;;;;;;;;;;5013628;28;20036;-77
2023/07/30 00:44:52;;;;;;;6.65;2.53;;;;;;;;;;5029789;28;20029;-76
2023/07/30 00:47:17;;;;;;;5.57;2.53;;;;;;;;;;5031361;28;20041;-76
2023/07/30 00:49:43;;;;;;;6.22;2.83;;;;;;;;;;5029897;28;20029;-75
2023/07/30 00:52:08;;;;;;;4.68;2.55;;;;;;;;;;5031140;28;20033;-77
2023/07/30 00:54:34;;;;;;;3.65;2.33;;;;;;;;;;5029553;28;20056;-77
2023/07/30 00:57:00;;;;;;;4.82;2.80;;;;;;;;;;5030047;28;20109;-77
2023/07/30 00:59:26;;;;;;;3.75;2.10;;;;;;;;;;5010468;28;20022;-73
2023/07/30 01:01:52;;;;;;;7.30;2.70;;;;;;;;;;5023213;28;20034;-75
2023/07/30 01:04:21;;;;;;;4.75;2.53;;;;;;;;;;5031092;28;20033;-76
2023/07/30 01:06:47;;;;;;;4.47;2.20;;;;;;;;;;5029810;28;20025;-77
2023/07/30 01:09:12;;;;;;;6.93;2.25;;;;;;;;;;5025956;28;20477;-77
2023/07/30 01:11:38;;;;;;;6.68;2.75;;;;;;;;;;5024310;28;20033;-77
2023/07/30 01:14:05;;;;;;;4.35;2.30;;;;;;;;;;5016864;28;20030;-76
2023/07/30 01:16:30;;;;;;;8.90;2.65;;;;;;;;;;5033471;28;20117;-76
2023/07/30 01:18:56;;;;;;;4.00;2.58;;;;;;;;;;5033404;28;20097;-76
2023/07/30 01:21:21;;;;;;;4.80;2.30;;;;;;;;;;5033367;28;20439;-74
2023/07/30 01:23:47;;;;;;;6.30;2.47;;;;;;;;;;5033356;28;20021;-76
2023/07/30 01:26:17;;;;;;;4.68;2.60;;;;;;;;;;5033339;28;20022;-76
2023/07/30 01:28:45;;;;;;;8.05;2.58;;;;;;;;;;5034463;28;20025;-74
2023/07/30 01:31:14;;;;;;;8.02;2.60;;;;;;;;;;5033407;28;20112;-77
2023/07/30 01:33:40;;;;;;;6.82;2.17;;;;;;;;;;5033345;28;20504;-76
2023/07/30 01:36:07;;;;;;;4.63;2.58;;;;;;;;;;5033333;28;20079;-76
2023/07/30 01:38:33;;;;;;;6.53;2.22;;;;;;;;;;5033742;28;20057;-76
2023/07/30 01:40:59;;;;;;;4.95;2.30;;;;;;;;;;5018628;28;20535;-76
2023/07/30 01:43:24;;;;;;;12.57;3.22;;;;;;;;;;5042049;28;20021;-76
2023/07/30 01:45:50;;;;;;;10.32;2.63;;;;;;;;;;5047962;28;20056;-76
2023/07/30 01:48:15;;;;;;;4.78;2.22;;;;;;;;;;5052358;28;20060;-76
2023/07/30 01:50:41;;;;;;;5.30;2.47;;;;;;;;;;5048954;28;20033;-76
2023/07/30 01:53:06;;;;;;;4.68;2.45;;;;;;;;;;5051743;28;20049;-76
2023/07/30 01:55:32;;;;;;;5.75;2.65;;;;;;;;;;5043569;28;20057;-76
2023/07/30 01:57:57;;;;;;;5.70;2.20;;;;;;;;;;5027289;28;20045;-77
2023/07/30 02:00:23;;;;;;;8.15;2.30;;;;;;;;;;5029336;28;20105;-76
2023/07/30 02:02:48;;;;;;;6.03;2.30;;;;;;;;;;5033687;28;20468;-76
2023/07/30 02:05:14;;;;;;;12.68;2.63;;;;;;;;;;5032331;28;20033;-77
2023/07/30 02:07:43;;;;;;;5.30;2.20;;;;;;;;;;5023753;28;20029;-76
2023/07/30 02:10:09;;;;;;;6.18;2.10;;;;;;;;;;5027144;28;20044;-77
2023/07/30 02:12:34;;;;;;;4.65;2.35;;;;;;;;;;5033591;28;20400;-76
2023/07/30 02:15:00;;;;;;;5.28;2.40;;;;;;;;;;5032348;28;20118;-76
2023/07/30 02:17:25;;;;;;;8.70;2.55;;;;;;;;;;5032538;28;20064;-77
2023/07/30 02:19:51;;;;;;;5.55;2.40;;;;;;;;;;5032546;28;20099;-76
2023/07/30 02:22:16;;;;;;;4.97;2.40;;;;;;;;;;5032957;28;20029;-77
2023/07/30 02:24:42;;;;;;;7.78;2.33;;;;;;;;;;5032142;28;20038;-77
2023/07/30 02:27:08;;;;;;;6.40;2.40;;;;;;;;;;5032863;28;20083;-76
2023/07/30 02:29:33;;;;;;;8.45;2.25;;;;;;;;;;5032550;28;20029;-76
2023/07/30 02:31:59;;;;;;;5.55;2.40;;;;;;;;;;5032598;28;20045;-77
2023/07/30 02:34:25;;;;;;;5.55;2.30;;;;;;;;;;5032063;28;20033;-76
2023/07/30 02:36:50;;;;;;;7.72;2.40;;;;;;;;;;5031981;28;20022;-77
2023/07/30 02:39:16;;;;;;;6.45;2.15;;;;;;;;;;5032012;28;20021;-75
2023/07/30 02:41:41;;;;;;;4.68;2.20;;;;;;;;;;5031693;28;20538;-75
2023/07/30 02:44:07;;;;;;;5.97;2.00;;;;;;;;;;5015199;28;20033;-77
2023/07/30 02:46:32;;;;;;;8.15;2.00;;;;;;;;;;4999123;28;20477;-75
2023/07/30 02:48:58;;;;;;;6.40;2.20;;;;;;;;;;5032837;28;20105;-77
2023/07/30 02:51:23;;;;;;;5.70;2.20;;;;;;;;;;5025495;28;20029;-77
2023/07/30 02:53:51;;;;;;;6.47;2.20;;;;;;;;;;5012061;28;20066;-74
2023/07/30 02:56:17;;;;;;;10.23;2.10;;;;;;;;;;5028485;28;20030;-77
2023/07/30 02:58:42;;;;;;;7.35;2.22;;;;;;;;;;5032832;28;20030;-75
2023/07/30 03:01:08;;;;;;;7.05;2.28;;;;;;;;;;5031397;28;20053;-76
2023/07/30 03:03:33;;;;;;;5.75;2.13;;;;;;;;;;5031197;28;20523;-76
2023/07/30 03:05:59;;;;;;;6.97;2.85;;;;;;;;;;5011299;28;20393;-77
2023/07/30 03:08:24;;;;;;;7.60;2.13;;;;;;;;;;5029046;28;20104;-76
2023/07/30 03:10:50;;;;;;;4.80;2.22;;;;;;;;;;5014343;28;20040;-77
2023/07/30 03:13:15;;;;;;;3.17;1.90;;;;;;;;;;5031089;28;20041;-77
2023/07/30 03:15:41;;;;;;;6.72;2.33;;;;;;;;;;5031798;28;20140;-76
2023/07/30 03:18:06;;;;;;;9.70;2.33;;;;;;;;;;5032184;28;20025;-76
2023/07/30 03:20:32;;;;;;;6.68;2.22;;;;;;;;;;5030868;28;20029;-76
2023/07/30 03:22:58;;;;;;;6.63;2.30;;;;;;;;;;5032173;28;20104;-77
2023/07/30 03:25:23;;;;;;;5.72;2.00;;;;;;;;;;5031852;28;20037;-77
2023/07/30 03:27:49;;;;;;;5.80;2.50;;;;;;;;;;5032318;28;20037;-77
2023/07/30 03:30:15;;;;;;;6.43;2.22;;;;;;;;;;5032317;28;20029;-76
2023/07/30 03:32:40;;;;;;;9.55;2.60;;;;;;;;;;5032101;28;20068;-76
2023/07/30 03:35:06;;;;;;;6.82;2.33;;;;;;;;;;5031729;28;20566;-76
2023/07/30 03:37:31;;;;;;;4.55;2.20;;;;;;;;;;5031128;28;20503;-77
2023/07/30 03:39:57;;;;;;;7.00;2.33;;;;;;;;;;5030943;28;20101;-77
2023/07/30 03:42:23;;;;;;;6.13;2.05;;;;;;;;;;5030946;28;20053;-74
2023/07/30 03:44:49;;;;;;;8.88;2.65;;;;;;;;;;5031727;28;20029;-76
2023/07/30 03:47:14;;;;;;;8.13;2.45;;;;;;;;;;5030949;28;20080;-75
2023/07/30 03:49:40;;;;;;;5.65;2.10;;;;;;;;;;5014135;28;20455;-78
2023/07/30 03:52:06;;;;;;;6.88;2.30;;;;;;;;;;5030651;28;20060;-75
2023/07/30 03:54:31;;;;;;;7.88;2.60;;;;;;;;;;5031697;28;20512;-76
2023/07/30 03:56:57;;;;;;;9.93;2.22;;;;;;;;;;5030908;28;20017;-75
2023/07/30 03:59:22;;;;;;;7.85;2.00;;;;;;;;;;5030689;28;20025;-77
2023/07/30 04:01:48;;;;;;;8.25;2.40;;;;;;;;;;5030670;28;20057;-77
2023/07/30 04:04:13;;;;;;;6.65;2.22;;;;;;;;;;5030807;28;20025;-77
2023/07/30 04:06:39;;;;;;;9.30;2.28;;;;;;;;;;5031842;28;20558;-77
2023/07/30 04:09:05;;;;;;;6.68;2.20;;;;;;;;;;5032130;28;20132;-76
2023/07/30 04:11:31;;;;;;;7.88;2.42;;;;;;;;;;5031133;28;20528;-76
2023/07/30 04:13:56;;;;;;;6.95;2.35;;;;;;;;;;5032475;28;20029;-77
2023/07/30 04:16:22;;;;;;;4.82;2.00;;;;;;;;;;5014697;28;20048;-77
2023/07/30 04:18:47;;;;;;;5.28;2.10;;;;;;;;;;5033595;28;20026;-75
2023/07/30 04:21:13;;;;;;;4.82;2.28;;;;;;;;;;5033710;28;20052;-76
2023/07/30 04:23:39;;;;;;;5.35;2.28;;;;;;;;;;5033879;28;20468;-74
2023/07/30 04:26:04;;;;;;;7.18;2.40;;;;;;;;;;5019332;28;20029;-76
2023/07/30 04:28:30;;;;;;;4.60;2.38;;;;;;;;;;5040691;28;20037;-76
2023/07/30 04:30:56;;;;;;;5.55;2.40;;;;;;;;;;5037828;28;20025;-75
2023/07/30 04:33:21;;;;;;;5.82;2.35;;;;;;;;;;5019972;28;20034;-75
2023/07/30 04:35:48;;;;;;;8.98;2.65;;;;;;;;;;5032078;28;20029;-76
2023/07/30 04:38:13;;;;;;;3.75;2.00;;;;;;;;;;5031772;28;20025;-75
2023/07/30 04:40:39;;;;;;;4.22;1.88;;;;;;;;;;5029595;28;20026;-74
2023/07/30 04:43:05;;;;;;;11.73;2.28;;;;;;;;;;5029170;28;20105;-76
2023/07/30 04:45:31;;;;;;;6.50;2.67;;;;;;;;;;4998370;28;20369;-77
2023/07/30 04:47:57;;;;;;;8.32;2.40;;;;;;;;;;5034007;28;20033;-76
2023/07/30 04:50:22;;;;;;;8.55;2.40;;;;;;;;;;5034309;28;20480;-75
2023/07/30 04:52:48;;;;;;;4.40;2.30;;;;;;;;;;5017933;28;20037;-76
2023/07/30 04:55:13;;;;;;;7.90;2.65;;;;;;;;;;5020945;28;20477;-76
2023/07/30 04:57:39;;;;;;;6.55;2.50;;;;;;;;;;5034076;28;20025;-75
2023/07/30 05:00:07;;;;;;;5.65;2.72;;;;;;;;;;5018224;28;20061;-75
2023/07/30 05:02:33;;;;;;;5.35;2.42;;;;;;;;;;5033983;28;20025;-77
2023/07/30 05:04:59;;;;;;;6.50;2.30;;;;;;;;;;5034049;28;20397;-77
2023/07/30 05:07:24;;;;;;;6.65;3.05;;;;;;;;;;5017398;28;20504;-76
2023/07/30 05:09:50;;;;;;;4.15;2.15;;;;;;;;;;5034938;28;20026;-77
2023/07/30 05:12:15;;;;;;;5.32;2.50;;;;;;;;;;5057431;23;20156;-77
2023/07/30 05:14:41;;;;;;;4.40;2.35;;;;;;;;;;5051994;28;20033;-77
2023/07/30 05:17:06;;;;;;;4.60;2.08;;;;;;;;;;5052952;28;20025;-77
2023/07/30 05:19:32;;;;;;;7.45;2.67;;;;;;;;;;5074844;28;20103;-78
2023/07/30 05:21:59;;;;;;;5.25;2.30;;;;;;;;;;5054179;28;20022;-77
2023/07/30 05:24:25;;;;;;;5.10;2.72;;;;;;;;;;5034568;28;20037;-77
2023/07/30 05:26:50;;;;;;;8.35;2.90;;;;;;;;;;5038384;28;20032;-78
2023/07/30 05:29:16;;;;;;;7.50;2.45;;;;;;;;;;5047634;28;20488;-78
2023/07/30 05:31:41;;;;;;;5.00;2.45;;;;;;;;;;5045489;28;20039;-79
2023/07/30 05:34:07;;;;;;;5.88;2.85;;;;;;;;;;5040187;28;20064;-77
2023/07/30 05:36:32;;;;;;;8.45;2.20;;;;;;;;;;5034543;28;20021;-78
2023/07/30 05:38:58;;;;;;;4.57;2.20;;;;;;;;;;5037136;28;20029;-78
2023/07/30 05:41:23;;;;;;;5.40;2.70;;;;;;;;;;5045210;28;20045;-78
2023/07/30 05:43:49;;;;;;;5.70;2.50;;;;;;;;;;5036262;28;20225;-77
2023/07/30 05:46:14;;;;;;;4.63;2.15;;;;;;;;;;5044920;28;20099;-78
2023/07/30 05:48:40;;;;;;;3.70;2.30;;;;;;;;;;5037881;28;20025;-78
2023/07/30 05:51:05;;;;;;;9.45;2.60;;;;;;;;;;5029042;28;20506;-80
2023/07/30 05:53:31;;;;;;;9.95;2.47;;;;;;;;;;5044080;28;20025;-78
2023/07/30 05:55:56;;;;;;;6.38;2.40;;;;;;;;;;5021316;28;20068;-77
2023/07/30 05:58:22;;;;;;;6.68;2.20;;;;;;;;;;5028334;28;20104;-78
2023/07/30 06:00:47;;;;;;;5.22;2.40;;;;;;;;;;5036473;28;20106;-78
2023/07/30 06:03:13;;;;;;;6.32;2.58;;;;;;;;;;5046385;28;20607;-78
2023/07/30 06:05:39;;;;;;;6.15;2.33;;;;;;;;;;5044794;28;20056;-79
2023/07/30 06:08:04;;;;;;;8.95;2.60;;;;;;;;;;5039096;28;20040;-78
2023/07/30 06:10:30;;;;;;;9.60;2.55;;;;;;;;;;5036579;28;20026;-78
2023/07/30 06:12:55;;;;;;;7.65;2.70;;;;;;;;;;5049744;28;20032;-78
2023/07/30 06:15:21;;;;;;;4.13;2.40;;;;;;;;;;5038953;28;20107;-78
2023/07/30 06:17:46;;;;;;;10.25;2.15;;;;;;;;;;5034503;28;20105;-77
2023/07/30 06:20:12;;;;;;;5.47;2.47;;;;;;;;;;5034494;28;20030;-78
2023/07/30 06:22:37;;;;;;;5.38;2.40;;;;;;;;;;5037709;28;20045;-78
2023/07/30 06:25:03;;;;;;;5.60;2.45;;;;;;;;;;5033196;28;20040;-77
2023/07/30 06:27:28;;;;;;;5.13;2.10;;;;;;;;;;5043685;28;20384;-77
2023/07/30 06:29:54;;;;;;;5.88;2.20;;;;;;;;;;5040992;28;20034;-77
2023/07/30 06:32:20;;;;;;;4.32;2.20;;;;;;;;;;5049175;28;20108;-77
2023/07/30 06:34:45;;;;;;;4.50;2.10;;;;;;;;;;5017066;28;20037;-79
2023/07/30 06:37:11;;;;;;;7.55;2.40;;;;;;;;;;5040617;28;20029;-78
2023/07/30 06:39:36;;;;;;;3.30;1.98;;;;;;;;;;5045032;28;20025;-79
2023/07/30 06:42:02;;;;;;;4.43;2.33;;;;;;;;;;5048136;28;20147;-78
2023/07/30 06:44:27;;;;;;;4.13;2.00;;;;;;;;;;5016141;28;20034;-79
2023/07/30 06:46:53;;;;;;;8.27;2.25;;;;;;;;;;5022878;28;20040;-78
2023/07/30 06:49:18;;;;;;;6.95;2.28;;;;;;;;;;5046218;28;20029;-77
2023/07/30 06:51:44;;;;;;;4.25;2.10;;;;;;;;;;5044791;28;20027;-77
2023/07/30 06:54:09;;;;;;;3.92;2.38;;;;;;;;;;5040526;28;20030;-78
2023/07/30 06:56:35;;;;;;;3.92;2.47;;;;;;;;;;5026635;28;20037;-77
2023/07/30 06:59:01;;;;;;;4.80;2.10;;;;;;;;;;5049684;28;20100;-77
2023/07/30 07:01:27;;;;;;;6.93;2.47;;;;;;;;;;5043637;28;20741;-78
2023/07/30 07:03:52;;;;;;;7.28;2.50;;;;;;;;;;5045589;28;20026;-79
2023/07/30 07:06:18;;;;;;;5.07;2.03;;;;;;;;;;5052733;28;20042;-78
2023/07/30 07:08:43;;;;;;;4.80;2.33;;;;;;;;;;5068854;28;20044;-78
2023/07/30 07:11:09;;;;;;;4.28;2.20;;;;;;;;;;5060679;28;20048;-77
2023/07/30 07:13:34;;;;;;;6.32;2.20;;;;;;;;;;5059773;28;20029;-78
2023/07/30 07:16:00;;;;;;;6.68;2.47;;;;;;;;;;5061049;28;20044;-78
2023/07/30 07:18:25;;;;;;;4.43;2.13;;;;;;;;;;5064987;28;20082;-78
2023/07/30 07:20:51;;;;;;;4.35;2.10;;;;;;;;;;5052416;28;20025;-77
2023/07/30 07:23:16;;;;;;;5.10;2.22;;;;;;;;;;5040316;28;20104;-78
2023/07/30 07:25:43;;;;;;;6.72;2.40;;;;;;;;;;5042791;28;20049;-79
2023/07/30 07:28:08;;;;;;;6.03;1.77;;;;;;;;;;5030026;28;20040;-78
2023/07/30 07:30:36;;;;;;;8.82;2.40;;;;;;;;;;5053440;28;20021;-79
2023/07/30 07:33:01;;;;;;;2.83;1.63;;;;;;;;;;5052941;28;20060;-78
2023/07/30 07:35:27;;;;;;;5.95;1.90;;;;;;;;;;5044438;28;20060;-78
2023/07/30 07:37:52;;;;;;;6.10;2.20;;;;;;;;;;5033346;28;20041;-78
2023/07/30 07:40:18;;;;;;;4.75;2.30;;;;;;;;;;5033139;28;20034;-78
2023/07/30 07:42:43;;;;;;;3.88;1.90;;;;;;;;;;5048939;28;20463;-77
2023/07/30 07:45:09;;;;;;;5.85;2.13;;;;;;;;;;5037259;28;20031;-78
2023/07/30 07:47:34;;;;;;;5.90;1.73;;;;;;;;;;5051482;28;20071;-78
2023/07/30 07:50:00;;;;;;;3.75;2.08;;;;;;;;;;5038847;28;20075;-79
2023/07/30 07:52:26;;;;;;;6.57;2.10;;;;;;;;;;5048415;28;20036;-79
2023/07/30 07:54:51;;;;;;;4.32;2.03;;;;;;;;;;5035687;28;20070;-79
2023/07/30 07:57:17;;;;;;;4.78;2.30;;;;;;;;;;5045536;28;20025;-79
2023/07/30 07:59:44;;;;;;;4.88;2.22;;;;;;;;;;5040225;28;20171;-78
2023/07/30 08:02:10;;;;;;;5.68;2.13;;;;;;;;;;5045535;28;20021;-78
2023/07/30 08:04:36;;;;;;;5.72;2.20;;;;;;;;;;5035015;28;20030;-79
2023/07/30 08:07:03;;;;;;;6.97;2.20;;;;;;;;;;5045662;28;20121;-78
2023/07/30 08:09:29;;;;;;;4.82;2.30;;;;;;;;;;5039699;28;20052;-79
2023/07/30 08:11:54;;;;;;;7.40;2.50;;;;;;;;;;5020180;28;20045;-79
2023/07/30 08:14:20;;;;;;;3.97;2.22;;;;;;;;;;5043683;28;20025;-78
2023/07/30 08:16:45;;;;;;;4.20;2.08;;;;;;;;;;5036195;28;20075;-79
2023/07/30 08:19:11;;;;;;;5.55;2.30;;;;;;;;;;5031719;28;20028;-79
2023/07/30 08:21:37;;;;;;;4.25;2.20;;;;;;;;;;5034848;28;20021;-78
2023/07/30 08:24:02;;;;;;;4.78;2.40;;;;;;;;;;5032213;28;20534;-78
2023/07/30 08:26:28;;;;;;;8.30;2.92;;;;;;;;;;5047073;28;20025;-79
2023/07/30 08:28:53;;;;;;;3.95;2.20;;;;;;;;;;5035681;28;20033;-78
2023/07/30 08:31:19;;;;;;;3.88;2.35;;;;;;;;;;5042666;28;20028;-78
2023/07/30 08:33:44;;;;;;;4.30;2.47;;;;;;;;;;5036565;28;20370;-78
2023/07/30 08:36:10;;;;;;;4.93;2.58;;;;;;;;;;5030246;28;20145;-78
2023/07/30 08:38:35;;;;;;;5.05;2.38;;;;;;;;;;5033165;28;20504;-78
2023/07/30 08:41:01;;;;;;;4.68;2.05;;;;;;;;;;5046485;28;20062;-78
2023/07/30 08:43:26;;;;;;;4.70;2.00;;;;;;;;;;5018174;28;20026;-78
2023/07/30 08:45:52;;;;;;;3.50;2.00;;;;;;;;;;5043597;28;20033;-78
2023/07/30 08:48:17;;;;;;;4.30;1.90;;;;;;;;;;5035931;28;20365;-78
2023/07/30 08:50:44;;;;;;;5.13;2.25;;;;;;;;;;5033008;28;20056;-78
2023/07/30 08:53:10;;;;;;;4.00;2.00;;;;;;;;;;5044262;28;20057;-79
2023/07/30 08:55:36;;;;;;;4.93;1.88;;;;;;;;;;5040326;28;20056;-79
2023/07/30 08:58:01;;;;;;;4.93;1.73;;;;;;;;;;5031736;28;20030;-78
2023/07/30 09:00:29;;;;;;;3.05;1.80;;;;;;;;;;5045799;28;20055;-79
2023/07/30 09:02:56;;;;;;;3.30;1.73;;;;;;;;;;5033574;28;20041;-79
2023/07/30 09:05:22;;;;;;;5.75;2.15;;;;;;;;;;5040273;28;20037;-79
2023/07/30 09:07:48;;;;;;;3.08;1.77;;;;;;;;;;5039685;28;20121;-79
2023/07/30 09:10:14;;;;;;;2.35;1.55;;;;;;;;;;5047030;28;20025;-77
2023/07/30 09:12:39;;;;;;;2.58;1.70;;;;;;;;;;5047507;28;20033;-79
2023/07/30 09:15:06;;;;;;;3.95;1.90;;;;;;;;;;5033067;28;20097;-77
2023/07/30 09:17:31;;;;;;;4.30;1.90;;;;;;;;;;5041613;28;20032;-79
2023/07/30 09:20:01;;;;;;;4.38;1.88;;;;;;;;;;5030221;28;20025;-79
2023/07/30 09:22:33;;;;;;;4.25;1.67;;;;;;;;;;5047824;28;20029;-77
2023/07/30 09:25:02;;;;;;;5.97;2.40;;;;;;;;;;5034875;28;20021;-79
2023/07/30 09:27:28;;;;;;;4.05;1.75;;;;;;;;;;5021914;28;20085;-79
2023/07/30 09:29:57;;;;;;;4.60;1.75;;;;;;;;;;5034758;28;20504;-78
2023/07/30 09:32:27;;;;;;;4.15;1.50;;;;;;;;;;5033341;28;20064;-79
2023/07/30 09:34:52;;;;;;;2.92;1.67;;;;;;;;;;5023381;28;20017;-79
2023/07/30 09:37:18;;;;;;;3.63;1.70;;;;;;;;;;5047114;28;20091;-79
2023/07/30 09:39:47;;;;;;;3.85;1.60;;;;;;;;;;5048001;28;20025;-77
2023/07/30 09:42:12;;;;;;;;;;;;;;;;;;5043329;28;20092;-79
2023/07/30 09:44:39;;;;;;;5.85;1.75;;;;;;;;;;5052761;28;19909;-78
2023/07/30 09:47:09;;;;;;;3.65;1.98;;;;;;;;;;5050681;28;20107;-78
2023/07/30 09:49:35;;;;;;;3.60;1.50;;;;;;;;;;5052882;28;20033;-78
2023/07/30 09:52:01;;;;;;;3.13;1.83;;;;;;;;;;5061882;28;20021;-79
2023/07/30 09:54:27;;;;;;;3.75;1.40;;;;;;;;;;5070466;28;20033;-78
2023/07/30 09:56:52;;;;;;;2.35;1.35;;;;;;;;;;5059800;28;20055;-78
2023/07/30 09:59:18;;;;;;;6.43;1.60;;;;;;;;;;5056492;28;20091;-78
2023/07/30 10:01:49;;;;;;;5.00;1.83;;;;;;;;;;5044012;28;20033;-77
2023/07/30 10:04:15;;;;;;;5.38;1.60;;;;;;;;;;5049209;28;20029;-78
2023/07/30 10:06:49;;;;;;;2.30;1.33;;;;;;;;;;5036255;28;20036;-79
2023/07/30 10:09:17;;;;;;;3.17;1.60;;;;;;;;;;5047880;28;20061;-79
2023/07/30 10:11:43;;;;;;;3.38;1.42;;;;;;;;;;5021431;28;20521;-78
2023/07/30 10:14:09;;;;;;;5.03;1.58;;;;;;;;;;5014052;28;20028;-79
2023/07/30 10:16:34;;;;;;;3.83;1.40;;;;;;;;;;5035870;28;20025;-79
2023/07/30 10:19:01;;;;;;;3.10;1.33;;;;;;;;;;5023768;28;20173;-78
2023/07/30 10:21:29;;;;;;;2.53;1.25;;;;;;;;;;5007958;28;20057;-78
2023/07/30 10:23:59;;;;;;;3.55;1.42;;;;;;;;;;5025050;28;20399;-79
2023/07/30 10:26:29;;;;;;;2.90;1.58;;;;;;;;;;5049057;28;20036;-78
2023/07/30 10:29:10;;;;;;;3.92;1.20;;;;;;;;;;5036866;28;20495;-79
2023/07/30 10:31:40;;;;;;;2.72;1.70;;;;;;;;;;5042472;28;20033;-79
2023/07/30 10:34:09;;;;;;;5.25;1.60;;;;;;;;;;5047931;28;20028;-79
2023/07/30 10:36:34;;;;;;;5.78;1.20;;;;;;;;;;5022199;28;20036;-78
2023/07/30 10:39:16;;;;;;;4.30;1.50;;;;;;;;;;5047839;28;20025;-79
2023/07/30 10:41:45;;;;;;;3.53;1.30;;;;;;;;;;5044252;28;20551;-79
2023/07/30 10:44:37;;;;;;;2.50;1.10;;;;;;;;;;5028931;28;20051;-78
2023/07/30 10:47:06;;;;;;;2.35;1.25;;;;;;;;;;5022386;28;20045;-79
2023/07/30 10:49:38;;;;;;;1.90;1.20;;;;;;;;;;5044044;28;20540;-78
2023/07/30 10:52:04;;;;;;;6.13;1.42;;;;;;;;;;5046978;28;20029;-78
2023/07/30 10:54:36;;;;;;;3.20;1.30;;;;;;;;;;5036198;28;20041;-78
2023/07/30 10:57:02;;;;;;;1.80;1.00;;;;;;;;;;5046697;28;20033;-79
2023/07/30 10:59:38;;;;;;;3.07;1.10;;;;;;;;;;5032222;28;20464;-78
2023/07/30 11:02:04;;;;;;;2.10;1.00;;;;;;;;;;5040826;28;20052;-78
2023/07/30 11:04:33;;;;;;;2.65;1.08;;;;;;;;;;5035159;28;20385;-79
2023/07/30 11:06:59;;;;;;;2.75;1.02;;;;;;;;;;5048629;28;20484;-79
2023/07/30 11:09:25;;;;;;;3.17;1.30;;;;;;;;;;5041224;28;20035;-78
2023/07/30 11:11:51;;;;;;;10.48;1.40;;;;;;;;;;5040015;23;20132;-75
2023/07/30 11:14:17;;;;;;;2.40;1.15;;;;;;;;;;5026856;28;20071;-75
2023/07/30 11:16:49;;;;;;;4.05;1.20;;;;;;;;;;5031933;28;20021;-77
2023/07/30 11:19:15;;;;;;;1.75;0.88;;;;;;;;;;5025884;28;20026;-75
2023/07/30 11:21:50;;;;;;;2.63;0.93;;;;;;;;;;5022410;28;20028;-77
2023/07/30 11:24:16;;;;;;;2.22;0.90;;;;;;;;;;5000300;28;20034;-76
2023/07/30 11:26:42;;;;;;;3.58;1.20;;;;;;;;;;5028978;28;20099;-75
2023/07/30 11:29:19;;;;;;;1.65;0.95;;;;;;;;;;5020109;28;20037;-75
2023/07/30 11:31:46;;;;;;;2.65;0.93;;;;;;;;;;5021064;28;20030;-77
2023/07/30 11:34:12;;;;;;;2.70;1.35;;;;;;;;;;5006595;28;20037;-75
2023/07/30 11:36:38;;;;;;;2.97;1.20;;;;;;;;;;5029516;28;20120;-75
2023/07/30 11:39:04;;;;;;;2.17;0.85;;;;;;;;;;5018219;28;20021;-76
2023/07/30 11:41:30;;;;;;;1.70;0.90;;;;;;;;;;5022283;28;20497;-74
2023/07/30 11:43:55;;;;;;;2.95;1.00;;;;;;;;;;5025013;28;20444;-75
2023/07/30 11:46:22;;;;;;;2.63;1.02;;;;;;;;;;5041401;28;20423;-77
2023/07/30 11:48:49;;;;;;;2.65;1.17;;;;;;;;;;5051938;28;20043;-76
2023/07/30 11:51:18;;;;;;;3.15;1.20;;;;;;;;;;5043961;28;20167;-73
2023/07/30 11:53:45;;;;;;;2.20;1.00;;;;;;;;;;5019929;28;20049;-76
2023/07/30 11:56:19;;;;;;;2.75;1.02;;;;;;;;;;5025474;28;20072;-77
2023/07/30 11:58:45;;;;;;;5.80;1.30;;;;;;;;;;5015617;28;20112;-77
2023/07/30 12:01:11;;;;;;;2.80;1.45;;;;;;;;;;5031387;28;20032;-74
2023/07/30 12:03:37;;;;;;;4.03;1.25;;;;;;;;;;5020776;28;20030;-75
2023/07/30 12:06:06;;;;;;;2.28;1.15;;;;;;;;;;5023871;28;20048;-77
2023/07/30 12:08:33;;;;;;;4.00;1.27;;;;;;;;;;5015256;28;20026;-76
2023/07/30 12:11:02;;;;;;;3.50;1.00;;;;;;;;;;5030582;28;20029;-76
2023/07/30 12:13:27;;;;;;;3.67;1.10;;;;;;;;;;5022189;28;20069;-76
2023/07/30 12:15:53;;;;;;;4.63;1.52;;;;;;;;;;5032619;28;20067;-74
2023/07/30 12:18:20;;;;;;;3.58;1.17;;;;;;;;;;5035517;28;20033;-76
2023/07/30 12:20:46;;;;;;;1.73;0.90;;;;;;;;;;5015233;28;20026;-76
2023/07/30 12:23:11;;;;;;;4.75;1.25;;;;;;;;;;5027594;28;20057;-76
2023/07/30 12:25:37;;;;;;;3.72;1.30;;;;;;;;;;5024845;28;20037;-76
2023/07/30 12:28:04;;;;;;;3.05;1.10;;;;;;;;;;5023176;28;20030;-77
2023/07/30 12:30:30;;;;;;;2.15;1.13;;;;;;;;;;5031272;28;20033;-73
2023/07/30 12:32:56;;;;;;;2.63;1.20;;;;;;;;;;4999796;28;20435;-76
2023/07/30 12:35:21;;;;;;;2.70;0.90;;;;;;;;;;5024878;28;20030;-76
2023/07/30 12:37:47;;;;;;;3.88;1.02;;;;;;;;;;5009203;28;20104;-74
2023/07/30 12:40:16;;;;;;;3.42;1.10;;;;;;;;;;5041400;28;20037;-75
2023/07/30 12:42:41;;;;;;;2.25;1.00;;;;;;;;;;5018220;28;20032;-74
2023/07/30 12:45:07;;;;;;;3.67;1.23;;;;;;;;;;5043254;28;20185;-75
2023/07/30 12:47:35;;;;;;;3.78;1.10;;;;;;;;;;5012367;28;20041;-77
2023/07/30 12:50:01;;;;;;;4.20;1.30;;;;;;;;;;5022457;28;20029;-77
2023/07/30 12:52:27;;;;;;;2.30;1.13;;;;;;;;;;5021612;28;20030;-76
2023/07/30 12:54:52;;;;;;;3.55;1.23;;;;;;;;;;5027987;28;20026;-77
2023/07/30 12:57:18;;;;;;;2.33;1.10;;;;;;;;;;5017600;28;20027;-77
2023/07/30 12:59:44;;;;;;;2.83;1.25;;;;;;;;;;5031879;28;20041;-75
2023/07/30 13:02:09;;;;;;;4.50;1.40;;;;;;;;;;5019257;28;20496;-76
2023/07/30 13:04:35;;;;;;;5.85;1.45;;;;;;;;;;5028020;28;20040;-74
2023/07/30 13:07:00;;;;;;;6.53;2.10;;;;;;;;;;5017844;28;20038;-74
2023/07/30 13:09:27;;;;;;;6.53;1.95;;;;;;;;;;5031716;28;20072;-76
2023/07/30 13:11:53;;;;;;;8.07;3.13;;;;;;;;;;5025644;28;20095;-76
2023/07/30 13:14:19;;;;;;;8.55;2.45;;;;;;;;;;5022275;28;20033;-75
2023/07/30 13:16:44;;;;;;;7.30;2.85;;;;;;;;;;5034316;28;20030;-77
2023/07/30 13:19:10;;;;;;;10.07;4.65;;;;;;;;;;5050899;28;20026;-77
2023/07/30 13:21:35;;;;;;;14.02;7.55;;;;;;;;;;5034234;28;20026;-78
2023/07/30 13:24:01;;;;;;;15.10;6.93;;;;;;;;;;5025115;28;20033;-77
2023/07/30 13:26:26;;;;;;;9.43;5.40;;;;;;;;;;5028679;28;20550;-77
2023/07/30 13:28:52;;;;;;;7.88;5.40;;;;;;;;;;5019171;28;20049;-78
2023/07/30 13:31:18;;;;;;;12.38;6.80;;;;;;;;;;5035575;28;21718;-78
2023/07/30 13:33:46;;;;;;;11.98;7.15;;;;;;;;;;5027398;28;20492;-76
2023/07/30 13:36:12;;;;;;;13.10;6.93;;;;;;;;;;5024063;28;20496;-77
2023/07/30 13:38:39;;;;;;;10.38;5.43;;;;;;;;;;5015522;28;20022;-75
2023/07/30 13:41:05;;;;;;;9.75;5.90;;;;;;;;;;5014707;28;20037;-77
2023/07/30 13:43:31;;;;;;;9.00;6.28;;;;;;;;;;5015232;28;20033;-76
2023/07/30 13:45:57;;;;;;;8.20;4.90;;;;;;;;;;5024153;28;20022;-75
2023/07/30 13:48:24;;;;;;;10.23;5.03;;;;;;;;;;5032865;28;20095;-78
2023/07/30 13:50:49;;;;;;;8.90;4.75;;;;;;;;;;5040570;28;20087;-77
2023/07/30 13:53:15;;;;;;;7.93;5.30;;;;;;;;;;5030192;28;20412;-77
2023/07/30 13:55:41;;;;;;;10.43;5.15;;;;;;;;;;5025679;28;20029;-77
2023/07/30 13:58:06;;;;;;;9.50;6.72;;;;;;;;;;5025803;28;20083;-75
2023/07/30 14:00:32;;;;;;;9.52;6.55;;;;;;;;;;5013307;28;20481;-77
2023/07/30 14:02:58;;;;;;;11.38;6.82;;;;;;;;;;5030598;28;20366;-78
2023/07/30 14:05:23;;;;;;;13.57;7.28;;;;;;;;;;5019050;28;20361;-77
2023/07/30 14:07:51;;;;;;;11.93;7.88;;;;;;;;;;5024567;28;20404;-77
2023/07/30 14:10:17;;;;;;;10.20;7.40;;;;;;;;;;5026426;28;20040;-77
2023/07/30 14:12:45;;;;;;;10.75;7.13;;;;;;;;;;5018524;28;20029;-76
2023/07/30 14:15:11;;;;;;;12.50;7.53;;;;;;;;;;5000668;28;20025;-75
2023/07/30 14:17:36;;;;;;;10.57;6.07;;;;;;;;;;5041685;28;20404;-77
2023/07/30 14:20:02;;;;;;;10.45;5.35;;;;;;;;;;5022183;28;20029;-78
2023/07/30 14:22:28;;;;;;;8.93;4.97;;;;;;;;;;5009611;28;20030;-78
2023/07/30 14:24:54;;;;;;;7.47;3.72;;;;;;;;;;5015773;28;20036;-76
2023/07/30 14:27:19;;;;;;;4.72;2.80;;;;;;;;;;5028098;28;20032;-77
2023/07/30 14:29:45;;;;;;;7.18;3.33;;;;;;;;;;5020371;28;20029;-78
2023/07/30 14:32:11;;;;;;;5.82;2.85;;;;;;;;;;5032591;28;20052;-76
2023/07/30 14:34:36;;;;;;;7.55;2.67;;;;;;;;;;5001132;28;20038;-77
2023/07/30 14:37:02;;;;;;;6.25;2.70;;;;;;;;;;5012863;28;20057;-77